createdAt,value
2022-11-03T00:01:38.615Z,1.23
2022-11-03T00:04:07.229Z,1.57
2022-11-03T00:06:34.551Z,1.60
2022-11-03T00:09:03.912Z,1.73
2022-11-03T00:11:34.271Z,1.27
2022-11-03T00:14:01.567Z,1.77
2022-11-03T00:16:28.660Z,1.23
2022-11-03T00:18:56.319Z,1.47
2022-11-03T00:21:23.480Z,1.27
2022-11-03T00:23:50.428Z,1.73
2022-11-03T00:26:21.339Z,1.63
2022-11-03T00:28:50.863Z,0.90
2022-11-03T00:31:20.397Z,1.33
2022-11-03T00:33:48.009Z,1.47
2022-11-03T00:36:17.506Z,1.30
2022-11-03T00:38:44.882Z,1.20
2022-11-03T00:41:12.754Z,1.50
2022-11-03T00:43:40.064Z,1.60
2022-11-03T00:46:08.401Z,1.70
2022-11-03T00:48:37.052Z,1.60
2022-11-03T00:51:21.674Z,1.77
2022-11-03T00:53:52.471Z,0.80
2022-11-03T00:56:42.472Z,1.20
2022-11-03T00:59:10.334Z,1.60
2022-11-03T01:01:46.425Z,1.60
2022-11-03T01:04:36.573Z,1.40
2022-11-03T01:07:05.251Z,1.50
2022-11-03T01:09:40.359Z,1.40
2022-11-03T01:12:16.314Z,1.10
2022-11-03T01:14:44.475Z,1.60
2022-11-03T01:17:14.378Z,1.20
2022-11-03T01:19:41.488Z,1.80
2022-11-03T01:22:10.864Z,1.27
2022-11-03T01:24:41.199Z,1.57
2022-11-03T01:27:16.128Z,1.67
2022-11-03T01:29:43.643Z,1.40
2022-11-03T01:32:11.554Z,1.20
2022-11-03T01:34:38.616Z,1.33
2022-11-03T01:37:05.994Z,1.00
2022-11-03T01:39:32.799Z,1.37
2022-11-03T01:41:59.950Z,1.40
2022-11-03T01:44:32.562Z,1.10
2022-11-03T01:47:02.309Z,1.27
2022-11-03T01:49:57.539Z,1.30
2022-11-03T01:52:38.804Z,1.13
2022-11-03T01:55:13.532Z,1.47
2022-11-03T01:58:02.108Z,1.10
2022-11-03T02:00:28.951Z,1.40
2022-11-03T02:02:55.729Z,1.20
2022-11-03T02:05:24.989Z,1.57
2022-11-03T02:08:05.367Z,1.20
2022-11-03T02:10:32.479Z,1.40
2022-11-03T02:12:59.873Z,0.73
2022-11-03T02:15:27.905Z,1.47
2022-11-03T02:17:57.773Z,1.40
2022-11-03T02:20:29.653Z,1.30
2022-11-03T02:23:10.687Z,1.73
2022-11-03T02:25:50.533Z,1.40
2022-11-03T02:28:23.560Z,2.00
2022-11-03T02:31:18.268Z,0.90
2022-11-03T02:33:58.093Z,1.30
2022-11-03T02:37:02.026Z,1.07
2022-11-03T02:39:36.738Z,1.40
2022-11-03T02:42:05.431Z,1.10
2022-11-03T02:44:34.251Z,0.30
2022-11-03T02:47:06.363Z,1.33
2022-11-03T02:49:38.971Z,1.50
2022-11-03T02:52:06.914Z,1.63
2022-11-03T02:54:44.131Z,1.30
2022-11-03T02:57:20.650Z,1.10
2022-11-03T02:59:57.133Z,1.40
2022-11-03T03:02:37.878Z,1.80
2022-11-03T03:05:08.847Z,1.50
2022-11-03T03:07:40.358Z,1.40
2022-11-03T03:10:12.463Z,1.27
2022-11-03T03:12:46.194Z,1.47
2022-11-03T03:15:13.507Z,1.20
2022-11-03T03:18:00.359Z,1.93
2022-11-03T03:20:34.113Z,1.20
2022-11-03T03:23:17.194Z,1.43
2022-11-03T03:25:54.064Z,1.43
2022-11-03T03:28:26.647Z,1.83
2022-11-03T03:30:57.588Z,1.30
2022-11-03T03:36:01.710Z,1.47
2022-11-03T03:38:35.967Z,1.47
2022-11-03T03:41:09.516Z,1.43
2022-11-03T03:43:37.739Z,1.27
2022-11-03T03:46:10.419Z,1.10
2022-11-03T03:48:37.642Z,0.93
2022-11-03T03:51:06.579Z,1.73
2022-11-03T03:53:33.513Z,1.13
2022-11-03T03:56:00.454Z,1.30
2022-11-03T03:58:27.332Z,1.53
2022-11-03T04:00:54.274Z,1.23
2022-11-03T04:03:23.896Z,1.50
2022-11-03T04:05:51.644Z,1.60
2022-11-03T04:08:18.618Z,0.90
2022-11-03T04:11:05.293Z,1.33
2022-11-03T04:13:51.750Z,1.20
2022-11-03T04:16:37.222Z,1.30
2022-11-03T04:19:22.622Z,1.53
2022-11-03T04:22:07.702Z,1.13
2022-11-03T04:24:34.480Z,1.50
2022-11-03T04:27:16.195Z,1.07
2022-11-03T04:29:42.963Z,1.27
2022-11-03T04:32:16.313Z,1.40
2022-11-03T04:34:46.429Z,1.27
2022-11-03T04:37:14.256Z,1.13
2022-11-03T04:39:41.534Z,1.13
2022-11-03T04:42:19.759Z,1.40
2022-11-03T04:44:48.011Z,1.50
2022-11-03T04:47:17.092Z,1.33
2022-11-03T04:49:46.653Z,1.03
2022-11-03T04:52:22.214Z,1.53
2022-11-03T04:54:52.455Z,1.33
2022-11-03T04:57:19.239Z,1.67
2022-11-03T04:59:49.137Z,1.27
2022-11-03T05:02:19.567Z,1.50
2022-11-03T05:04:46.451Z,1.43
2022-11-03T05:07:28.916Z,1.67
2022-11-03T05:09:55.774Z,1.10
2022-11-03T05:12:23.321Z,1.60
2022-11-03T05:14:55.475Z,1.37
2022-11-03T05:17:29.432Z,1.33
2022-11-03T05:20:00.126Z,1.80
2022-11-03T05:22:34.043Z,1.30
2022-11-03T05:25:20.616Z,1.23
2022-11-03T05:27:47.523Z,1.10
2022-11-03T05:30:15.223Z,1.20
2022-11-03T05:32:42.344Z,1.27
2022-11-03T05:35:21.107Z,1.50
2022-11-03T05:37:47.970Z,1.33
2022-11-03T05:40:26.034Z,1.40
2022-11-03T05:43:02.601Z,1.20
2022-11-03T05:45:34.170Z,1.20
2022-11-03T05:48:03.722Z,1.37
2022-11-03T05:50:35.159Z,1.20
2022-11-03T05:53:18.172Z,1.03
2022-11-03T05:55:45.126Z,1.57
2022-11-03T05:58:19.652Z,1.30
2022-11-03T06:00:48.854Z,1.57
2022-11-03T06:03:29.227Z,1.10
2022-11-03T06:05:58.683Z,1.13
2022-11-03T06:08:35.300Z,1.03
2022-11-03T06:11:04.609Z,1.10
2022-11-03T06:13:35.091Z,1.17
2022-11-03T06:16:24.895Z,1.30
2022-11-03T06:18:51.912Z,1.03
2022-11-03T06:21:25.601Z,1.00
2022-11-03T06:23:54.851Z,1.67
2022-11-03T06:26:27.123Z,1.67
2022-11-03T06:28:55.394Z,1.40
2022-11-03T06:31:24.987Z,1.67
2022-11-03T06:33:52.821Z,1.00
2022-11-03T06:36:23.276Z,1.10
2022-11-03T06:38:56.022Z,1.47
2022-11-03T06:41:28.237Z,1.07
2022-11-03T06:43:57.073Z,1.40
2022-11-03T06:46:25.930Z,1.00
2022-11-03T06:48:55.161Z,1.13
2022-11-03T06:51:24.716Z,1.20
2022-11-03T06:53:53.636Z,1.23
2022-11-03T06:56:23.406Z,1.10
2022-11-03T07:03:58.645Z,1.73
2022-11-03T07:06:31.482Z,1.33
2022-11-03T07:09:01.965Z,1.37
2022-11-03T07:11:43.846Z,1.40
2022-11-03T07:14:12.801Z,1.20
2022-11-03T07:16:56.613Z,1.33
2022-11-03T07:19:27.920Z,1.10
2022-11-03T07:21:56.589Z,1.37
2022-11-03T07:24:36.633Z,1.77
2022-11-03T07:27:20.571Z,1.20
2022-11-03T07:29:49.769Z,1.47
2022-11-03T07:32:20.284Z,1.63
2022-11-03T07:34:49.394Z,1.70
2022-11-03T07:37:20.227Z,1.50
2022-11-03T07:39:47.239Z,1.33
2022-11-03T07:42:18.556Z,1.30
2022-11-03T07:44:46.094Z,0.83
2022-11-03T07:47:27.061Z,1.20
2022-11-03T07:49:56.949Z,1.40
2022-11-03T07:52:25.558Z,1.27
2022-11-03T07:54:57.050Z,1.30
2022-11-03T07:57:28.318Z,1.10
2022-11-03T08:00:03.979Z,1.30
2022-11-03T08:02:57.096Z,1.23
2022-11-03T08:05:24.038Z,1.20
2022-11-03T08:07:50.803Z,1.00
2022-11-03T08:10:17.767Z,1.40
2022-11-03T08:12:44.613Z,0.90
2022-11-03T08:15:11.726Z,1.17
2022-11-03T08:17:38.786Z,1.07
2022-11-03T08:20:06.243Z,1.30
2022-11-03T08:22:33.112Z,1.43
2022-11-03T08:25:00.108Z,1.20
2022-11-03T08:27:27.945Z,1.40
2022-11-03T08:29:54.715Z,1.37
2022-11-03T08:32:21.741Z,1.00
2022-11-03T08:34:48.497Z,1.27
2022-11-03T08:37:15.219Z,1.03
2022-11-03T08:39:42.470Z,1.40
2022-11-03T08:42:09.229Z,1.77
2022-11-03T08:44:35.941Z,1.50
2022-11-03T08:47:02.719Z,1.60
2022-11-03T08:49:29.692Z,1.47
2022-11-03T08:51:56.546Z,1.20
2022-11-03T08:54:23.456Z,1.40
2022-11-03T08:56:50.327Z,1.10
2022-11-03T08:59:18.221Z,1.00
2022-11-03T09:01:45.505Z,1.33
2022-11-03T09:04:12.471Z,1.33
2022-11-03T09:06:39.408Z,1.30
2022-11-03T09:11:54.675Z,0.90
2022-11-03T09:14:21.720Z,1.20
2022-11-03T09:16:48.545Z,1.57
2022-11-03T09:19:15.520Z,1.00
2022-11-03T09:21:42.366Z,1.33
2022-11-03T09:24:09.209Z,1.17
2022-11-03T09:26:36.154Z,1.30
2022-11-03T09:29:03.062Z,1.53
2022-11-03T09:31:30.134Z,1.23
2022-11-03T09:33:57.035Z,1.30
2022-11-03T09:36:24.005Z,1.30
2022-11-03T09:38:51.004Z,1.73
2022-11-03T09:41:26.670Z,1.00
2022-11-03T09:43:57.898Z,1.30
2022-11-03T09:46:26.094Z,1.50
2022-11-03T09:48:54.710Z,1.50
2022-11-03T09:51:22.628Z,2.00
2022-11-03T09:53:49.952Z,1.67
2022-11-03T09:56:19.730Z,1.50
2022-11-03T09:58:51.249Z,1.50
2022-11-03T10:01:21.022Z,1.60
2022-11-03T10:03:47.962Z,1.17
2022-11-03T10:06:17.177Z,1.40
2022-11-03T10:08:46.341Z,1.30
2022-11-03T10:11:14.027Z,1.27
2022-11-03T10:13:43.889Z,1.60
2022-11-03T10:16:15.308Z,1.63
2022-11-03T10:18:42.754Z,1.70
2022-11-03T10:21:17.720Z,1.33
2022-11-03T10:23:45.061Z,1.43
2022-11-03T10:26:16.435Z,1.40
2022-11-03T10:29:01.994Z,1.37
2022-11-03T10:31:34.645Z,1.87
2022-11-03T10:34:01.757Z,1.90
2022-11-03T10:36:30.887Z,1.63
2022-11-03T10:38:58.486Z,1.57
2022-11-03T10:41:31.392Z,1.37
2022-11-03T10:44:13.144Z,1.30
2022-11-03T10:46:56.538Z,1.57
2022-11-03T10:49:23.657Z,1.30
2022-11-03T10:51:58.315Z,1.50
2022-11-03T10:54:25.551Z,1.20
2022-11-03T10:56:53.150Z,1.77
2022-11-03T10:59:23.320Z,1.30
2022-11-03T11:01:50.471Z,1.60
2022-11-03T11:04:19.207Z,1.40
2022-11-03T11:06:46.977Z,1.33
2022-11-03T11:09:27.609Z,1.20
2022-11-03T11:12:32.503Z,1.40
2022-11-03T11:15:02.532Z,1.30
2022-11-03T11:17:38.272Z,1.67
2022-11-03T11:20:22.333Z,1.27
2022-11-03T11:22:51.168Z,1.40
2022-11-03T11:25:18.806Z,1.33
2022-11-03T11:27:45.851Z,1.27
2022-11-03T11:30:21.881Z,1.47
2022-11-03T11:32:48.783Z,1.77
2022-11-03T11:35:38.965Z,1.37
2022-11-03T11:38:43.647Z,1.30
2022-11-03T11:41:10.491Z,1.60
2022-11-03T11:43:37.357Z,1.13
2022-11-03T11:46:22.793Z,1.30
2022-11-03T11:49:04.604Z,1.80
2022-11-03T11:51:40.863Z,1.30
2022-11-03T11:54:18.709Z,1.50
2022-11-03T11:56:48.938Z,1.27
2022-11-03T11:59:24.274Z,0.90
2022-11-03T12:01:55.117Z,1.60
2022-11-03T12:04:29.152Z,1.50
2022-11-03T12:06:57.706Z,1.57
2022-11-03T12:09:27.747Z,1.13
2022-11-03T12:12:07.148Z,1.20
2022-11-03T12:14:39.017Z,1.43
2022-11-03T12:17:18.503Z,1.47
2022-11-03T12:19:53.067Z,1.00
2022-11-03T12:22:29.194Z,1.30
2022-11-03T12:24:57.688Z,1.20
2022-11-03T12:27:24.421Z,1.40
2022-11-03T12:29:58.495Z,1.30
2022-11-03T12:32:33.615Z,1.30
2022-11-03T12:35:02.815Z,1.57
2022-11-03T12:37:29.646Z,1.37
2022-11-03T12:39:56.448Z,1.20
2022-11-03T12:42:25.140Z,1.70
2022-11-03T12:44:53.090Z,1.70
2022-11-03T12:47:20.576Z,2.40
2022-11-03T12:49:47.889Z,1.80
2022-11-03T12:52:15.651Z,1.47
2022-11-03T12:54:42.601Z,1.43
2022-11-03T12:57:09.934Z,1.53
2022-11-03T12:59:37.094Z,1.60
2022-11-03T13:02:04.677Z,1.50
2022-11-03T13:04:31.767Z,1.30
2022-11-03T13:06:58.618Z,1.13
2022-11-03T13:09:25.457Z,1.40
2022-11-03T13:12:10.903Z,1.10
2022-11-03T13:14:37.768Z,1.07
2022-11-03T13:17:04.656Z,1.20
2022-11-03T13:19:31.506Z,1.20
2022-11-03T13:21:59.312Z,1.03
2022-11-03T13:24:26.633Z,1.20
2022-11-03T13:26:53.527Z,1.00
2022-11-03T13:29:20.337Z,1.00
2022-11-03T13:31:47.494Z,1.20
2022-11-03T13:34:14.302Z,1.20
2022-11-03T13:36:41.150Z,1.27
2022-11-03T13:39:08.109Z,1.33
2022-11-03T13:41:34.935Z,1.40
2022-11-03T13:44:01.824Z,1.30
2022-11-03T13:46:28.906Z,1.37
2022-11-03T13:51:42.819Z,1.03
2022-11-03T13:59:43.760Z,1.33
2022-11-03T14:04:59.120Z,1.10
2022-11-03T14:07:26.888Z,1.07
2022-11-03T14:09:55.004Z,1.37
2022-11-03T14:12:33.072Z,1.13
2022-11-03T14:15:01.993Z,1.00
2022-11-03T14:17:28.825Z,0.93
2022-11-03T14:20:00.786Z,1.20
2022-11-03T14:22:33.208Z,0.93
2022-11-03T14:25:01.093Z,1.10
2022-11-03T14:27:28.422Z,1.33
2022-11-03T14:29:55.446Z,1.10
2022-11-03T14:32:22.358Z,1.10
2022-11-03T14:34:49.240Z,1.40
2022-11-03T14:37:16.926Z,1.20
2022-11-03T14:39:44.142Z,1.43
2022-11-03T14:42:16.987Z,1.60
2022-11-03T14:44:46.192Z,1.60
2022-11-03T14:47:18.235Z,1.50
2022-11-03T14:49:46.621Z,1.20
2022-11-03T14:52:14.657Z,1.33
2022-11-03T14:54:42.375Z,1.90
2022-11-03T14:57:09.891Z,1.43
2022-11-03T14:59:37.481Z,1.20
2022-11-03T15:02:06.038Z,1.50
2022-11-03T15:04:33.613Z,1.30
2022-11-03T15:07:00.658Z,1.40
2022-11-03T15:09:27.590Z,1.57
2022-11-03T15:11:55.099Z,1.50
2022-11-03T15:14:22.072Z,1.27
2022-11-03T15:16:49.225Z,1.27
2022-11-03T15:19:16.530Z,1.93
2022-11-03T15:21:43.418Z,1.10
2022-11-03T15:26:57.009Z,1.20
2022-11-03T15:29:24.209Z,1.50
2022-11-03T15:31:51.124Z,1.20
2022-11-03T15:34:18.240Z,1.53
2022-11-03T15:36:45.451Z,1.90
2022-11-03T15:39:13.447Z,1.37
2022-11-03T15:41:40.783Z,1.40
2022-11-03T15:44:07.750Z,1.17
2022-11-03T15:46:35.802Z,1.23
2022-11-03T15:49:03.178Z,1.33
2022-11-03T15:51:29.983Z,1.07
2022-11-03T15:53:58.963Z,1.43
2022-11-03T15:56:29.694Z,1.37
2022-11-03T15:58:56.774Z,1.30
2022-11-03T16:01:23.968Z,1.53
2022-11-03T16:03:51.306Z,1.60
2022-11-03T16:06:18.141Z,1.60
2022-11-03T16:08:45.300Z,1.50
2022-11-03T16:11:12.436Z,1.33
2022-11-03T16:13:39.610Z,1.47
2022-11-03T16:16:06.788Z,1.23
2022-11-03T16:18:33.806Z,1.80
2022-11-03T16:21:00.762Z,1.57
2022-11-03T16:23:27.746Z,1.57
2022-11-03T16:25:54.664Z,1.47
2022-11-03T16:28:21.543Z,1.57
2022-11-03T16:30:53.816Z,1.30
2022-11-03T16:33:21.113Z,1.60
2022-11-03T16:35:47.949Z,1.70
2022-11-03T16:38:15.668Z,1.60
2022-11-03T16:40:43.528Z,1.43
2022-11-03T16:43:10.869Z,1.50
2022-11-03T16:45:38.356Z,1.30
2022-11-03T16:48:06.661Z,1.33
2022-11-03T16:50:34.802Z,1.10
2022-11-03T16:53:01.846Z,1.43
2022-11-03T16:55:28.763Z,1.60
2022-11-03T16:57:55.971Z,1.27
2022-11-03T17:00:24.267Z,1.03
2022-11-03T17:02:51.913Z,1.03
2022-11-03T17:05:21.144Z,1.30
2022-11-03T17:07:53.761Z,0.97
2022-11-03T17:10:21.744Z,1.20
2022-11-03T17:12:49.100Z,1.30
2022-11-03T17:15:17.283Z,1.20
2022-11-03T17:17:44.391Z,1.17
2022-11-03T17:20:12.537Z,1.37
2022-11-03T17:22:40.123Z,1.43
2022-11-03T17:25:09.506Z,1.37
2022-11-03T17:27:51.714Z,1.27
2022-11-03T17:30:21.277Z,1.83
2022-11-03T17:32:50.666Z,2.90
2022-11-03T17:35:39.839Z,2.60
2022-11-03T17:38:13.888Z,2.63
2022-11-03T17:40:43.168Z,3.30
2022-11-03T17:43:24.316Z,3.10
2022-11-03T17:45:51.598Z,2.03
2022-11-03T17:48:18.368Z,1.83
2022-11-03T17:50:49.761Z,2.17
2022-11-03T17:53:26.981Z,1.87
2022-11-03T17:56:23.313Z,2.40
2022-11-03T17:58:46.257Z,2.43
2022-11-03T18:01:21.977Z,2.23
2022-11-03T18:03:49.056Z,1.67
2022-11-03T18:06:19.353Z,2.07
2022-11-03T18:08:47.590Z,1.70
2022-11-03T18:11:52.338Z,1.53
2022-11-03T18:14:20.056Z,1.90
2022-11-03T18:16:48.103Z,1.73
2022-11-03T18:19:17.588Z,1.67
2022-11-03T18:21:44.626Z,1.70
2022-11-03T18:24:17.222Z,1.60
2022-11-03T18:26:44.406Z,1.50
2022-11-03T18:29:11.732Z,1.93
2022-11-03T18:31:46.844Z,1.40
2022-11-03T18:34:17.469Z,1.70
2022-11-03T18:36:44.614Z,2.30
2022-11-03T18:39:23.255Z,2.40
2022-11-03T18:41:50.316Z,1.57
2022-11-03T18:44:21.822Z,1.63
2022-11-03T18:46:49.216Z,1.93
2022-11-03T18:49:16.471Z,1.67
2022-11-03T18:51:49.404Z,3.10
2022-11-03T18:56:53.198Z,1.70
2022-11-03T18:59:32.219Z,1.70
2022-11-03T19:01:59.452Z,2.40
2022-11-03T19:04:26.524Z,2.10
2022-11-03T19:06:53.870Z,2.27
2022-11-03T19:09:26.168Z,2.30
2022-11-03T19:11:57.372Z,2.60
2022-11-03T19:14:29.414Z,2.50
2022-11-03T19:19:44.867Z,2.87
2022-11-03T19:22:14.461Z,3.43
2022-11-03T19:24:42.139Z,3.10
2022-11-03T19:27:18.095Z,3.53
2022-11-03T19:29:47.129Z,2.90
2022-11-03T19:32:25.114Z,2.83
2022-11-03T19:35:01.083Z,3.13
2022-11-03T19:37:35.118Z,3.10
2022-11-03T19:40:06.087Z,3.00
2022-11-03T19:42:36.939Z,3.60
2022-11-03T19:45:10.770Z,3.00
2022-11-03T19:47:47.963Z,3.10
2022-11-03T19:50:22.440Z,3.77
2022-11-03T19:52:50.210Z,3.27
2022-11-03T19:55:19.304Z,3.57
2022-11-03T19:57:46.058Z,3.43
2022-11-03T20:00:19.741Z,4.07
2022-11-03T20:02:47.005Z,3.80
2022-11-03T20:05:14.135Z,5.77
2022-11-03T20:07:43.161Z,6.03
2022-11-03T20:10:17.929Z,3.90
2022-11-03T20:12:46.103Z,4.40
2022-11-03T20:15:19.134Z,3.90
2022-11-03T20:17:47.786Z,3.93
2022-11-03T20:20:17.006Z,3.80
2022-11-03T20:22:48.535Z,4.20
2022-11-03T20:25:25.553Z,4.10
2022-11-03T20:27:52.972Z,4.03
2022-11-03T20:30:21.826Z,4.10
2022-11-03T20:32:49.125Z,3.77
2022-11-03T20:35:23.019Z,4.07
2022-11-03T20:37:57.380Z,4.17
2022-11-03T20:40:27.329Z,4.20
2022-11-03T20:42:57.274Z,4.10
2022-11-03T20:45:24.629Z,4.60
2022-11-03T20:47:52.631Z,4.03
2022-11-03T20:50:20.799Z,4.40
2022-11-03T20:52:48.558Z,4.47
2022-11-03T20:55:22.801Z,4.13
2022-11-03T20:57:50.879Z,4.53
2022-11-03T21:00:24.333Z,4.13
2022-11-03T21:02:51.888Z,4.20
2022-11-03T21:05:25.078Z,4.57
2022-11-03T21:07:53.081Z,4.27
2022-11-03T21:10:21.511Z,4.37
2022-11-03T21:12:48.808Z,4.73
2022-11-03T21:16:03.791Z,4.70
2022-11-03T21:18:49.665Z,4.40
2022-11-03T21:21:20.960Z,4.77
2022-11-03T21:23:48.259Z,4.33
2022-11-03T21:26:15.153Z,4.40
2022-11-03T21:28:43.797Z,4.23
2022-11-03T21:31:13.436Z,4.43
2022-11-03T21:33:40.443Z,4.43
2022-11-03T21:36:07.916Z,4.60
2022-11-03T21:38:34.771Z,4.50
2022-11-03T21:41:20.268Z,4.47
2022-11-03T21:44:05.695Z,4.23
2022-11-03T21:46:32.607Z,4.60
2022-11-03T21:49:18.197Z,4.83
2022-11-03T21:51:45.436Z,4.37
2022-11-03T21:54:12.489Z,5.50
2022-11-03T21:56:39.296Z,4.57
2022-11-03T21:59:06.211Z,4.77
2022-11-03T22:01:33.165Z,4.77
2022-11-03T22:04:00.030Z,4.47
2022-11-03T22:06:26.893Z,5.03
2022-11-03T22:08:54.412Z,4.53
2022-11-03T22:11:21.295Z,4.60
2022-11-03T22:13:54.779Z,4.63
2022-11-03T22:16:42.358Z,4.43
2022-11-03T22:19:31.213Z,4.90
2022-11-03T22:22:17.968Z,4.63
2022-11-03T22:25:04.093Z,4.83
2022-11-03T22:27:32.749Z,5.00
2022-11-03T22:30:19.207Z,5.13
2022-11-03T22:32:51.589Z,4.73
2022-11-03T22:35:37.076Z,4.63
2022-11-03T22:38:18.011Z,4.87
2022-11-03T22:41:06.203Z,4.93
2022-11-03T22:43:51.971Z,4.87
2022-11-03T22:46:19.240Z,4.43
2022-11-03T22:48:45.978Z,4.83
2022-11-03T22:51:16.876Z,4.27
2022-11-03T22:54:02.392Z,5.07
2022-11-03T22:56:30.412Z,4.73
2022-11-03T22:58:57.547Z,4.30
2022-11-03T23:01:30.314Z,4.40
2022-11-03T23:03:57.939Z,5.00
2022-11-03T23:06:27.711Z,4.67
2022-11-03T23:08:55.867Z,4.80
2022-11-03T23:11:30.946Z,4.47
2022-11-03T23:14:03.850Z,4.57
2022-11-03T23:16:33.283Z,4.27
2022-11-03T23:19:19.160Z,4.60
2022-11-03T23:21:48.333Z,4.37
2022-11-03T23:24:34.260Z,3.97
2022-11-03T23:27:01.743Z,3.80
2022-11-03T23:29:29.514Z,4.30
2022-11-03T23:31:58.335Z,2.60
2022-11-03T23:34:25.624Z,1.90
2022-11-03T23:36:53.101Z,1.43
2022-11-03T23:39:22.462Z,1.20
2022-11-03T23:41:52.895Z,0.63
2022-11-03T23:44:20.129Z,0.63
2022-11-03T23:47:06.033Z,0.63
2022-11-03T23:49:32.938Z,0.60
2022-11-03T23:51:59.936Z,0.40
2022-11-03T23:54:27.353Z,0.40
2022-11-03T23:57:12.913Z,0.50
2022-11-03T23:59:39.723Z,0.30
